Flight Track Log - Related Links

Times and Time Zones

All times are in EDT time to prevent confusion due to time zone crossing. See the SWA34 flight status page for this flight to view local times or setup timezone preferences in your user account.

Time Position Orientation Groundspeed Altitude Reporting Facility
EDT Latitude Longitude Course Direction KTS MPH feet Rate Location/Type
Sun 01:35:58 PM 33.6500 -84.4333 270° West 156 180 2,100  Level Atlanta TRACON
Sun 01:37:03 PM 33.6500 -84.5167 270° West 244 281 4,600 2,874 Climbing Atlanta TRACON
Sun 01:37:57 PM 33.6667 -84.6000 284° West 272 313 7,800 2,931 Climbing Atlanta TRACON
Sun 01:39:57 PM 33.6897 -84.7828 279° West 293 337 13,100 2,900 Climbing Atlanta Center
Sun 01:40:57 PM 33.6558 -84.8672 244° Southwest 278 320 16,500 2,800 Climbing Atlanta Center
Sun 01:41:57 PM 33.6197 -84.9592 245° Southwest 290 334 18,700 2,450 Climbing Atlanta Center
Sun 01:42:57 PM 33.5836 -85.0486 244° Southwest 321 369 21,400 2,600 Climbing Atlanta Center
Sun 01:43:57 PM 33.5431 -85.1453 243° Southwest 321 369 23,900 2,250 Climbing Atlanta Center
Sun 01:44:57 PM 33.5086 -85.2447 247° West 326 375 25,900 1,750 Climbing Atlanta Center
Sun 01:45:57 PM 33.4886 -85.3664 259° West 345 397 27,400 1,500 Climbing Atlanta Center
Sun 01:46:57 PM 33.4706 -85.4906 260° West 378 435 28,900 1,650 Climbing Atlanta Center
Sun 01:47:57 PM 33.4503 -85.6147 259° West 388 447 30,700 1,700 Climbing Atlanta Center
Sun 01:48:57 PM 33.4297 -85.7439 259° West 393 452 32,300 1,450 Climbing Atlanta Center
Sun 01:49:57 PM 33.4069 -85.8778 259° West 386 444 33,600 1,200 Climbing Atlanta Center
Sun 01:50:57 PM 33.3861 -86.0142 260° West 397 457 34,700 1,350 Climbing Atlanta Center
Sun 01:51:57 PM 33.3650 -86.1506 260° West 410 472 36,300 1,400 Climbing Atlanta Center
Sun 01:52:57 PM 33.3439 -86.2792 259° West 410 472 37,500 850 Climbing Atlanta Center
Sun 01:53:57 PM 33.3225 -86.4131 259° West 410 472 38,000 250 Climbing Atlanta Center
Sun 01:54:57 PM 33.3017 -86.5267 258° West 410 472 38,000  Level Atlanta Center
Sun 01:55:57 PM 33.2775 -86.6800 259° West 415 478 38,000  Level Atlanta Center
Sun 01:56:57 PM 33.2558 -86.8136 259° West 415 478 38,000  Level Atlanta Center
Sun 01:57:57 PM 33.2319 -86.9469 258° West 420 483 38,000  Level Atlanta Center
Sun 01:58:57 PM 33.1900 -87.0422 242° Southwest 413 475 38,000  Level Atlanta Center
Sun 01:59:57 PM 33.1217 -87.1814 240° Southwest 418 481 38,000  Level Atlanta Center
Sun 02:00:57 PM 33.0686 -87.3008 242° Southwest 418 481 38,000  Level Atlanta Center
Sun 02:02:32 PM 32.9833 -87.4919 242° Southwest 441 507 38,000  Level Memphis Center
Sun 02:03:32 PM 32.9275 -87.6100 241° Southwest 430 495 38,000  Level Memphis Center
Sun 02:04:32 PM 32.8739 -87.7303 242° Southwest 425 489 38,000  Level Memphis Center
Sun 02:05:32 PM 32.8219 -87.8481 242° Southwest 420 483 38,000  Level Memphis Center
Sun 02:06:32 PM 32.7661 -87.9806 243° Southwest 414 476 38,000  Level Memphis Center
Sun 02:07:32 PM 32.7244 -88.1003 248° West 408 470 38,000  Level Memphis Center
Sun 02:08:32 PM 32.6869 -88.2247 250° West 403 464 38,000  Level Memphis Center
Sun 02:09:32 PM 32.6472 -88.3514 250° West 403 464 38,000  Level Memphis Center
Sun 02:10:32 PM 32.6097 -88.4731 250° West 403 464 38,000  Level Memphis Center
Sun 02:11:32 PM 32.5675 -88.5972 248° West 403 464 38,000  Level Memphis Center
Sun 02:12:32 PM 32.5275 -88.7261 250° West 414 476 38,000  Level Memphis Center
Sun 02:13:32 PM 32.4875 -88.8500 249° West 414 476 38,000  Level Memphis Center
Sun 02:14:32 PM 32.4472 -88.9764 249° West 414 476 38,000  Level Memphis Center
Sun 02:15:32 PM 32.4089 -89.1022 250° West 414 476 38,000  Level Memphis Center
Sun 02:16:32 PM 32.3681 -89.2233 248° West 414 476 38,000  Level Memphis Center
Sun 02:17:32 PM 32.3297 -89.3469 250° West 414 476 38,000  Level Memphis Center
Sun 02:18:32 PM 32.2889 -89.4678 248° West 414 476 38,000  Level Memphis Center
Sun 02:19:32 PM 32.2478 -89.5908 248° West 414 476 38,000  Level Memphis Center
Sun 02:20:32 PM 32.2089 -89.7142 250° West 414 476 38,000  Level Memphis Center
Sun 02:21:32 PM 32.1678 -89.8369 248° West 414 476 38,000  Level Memphis Center
Sun 02:22:32 PM 32.1264 -89.9575 248° West 414 476 38,000  Level Memphis Center
Sun 02:23:32 PM 32.0869 -90.0778 249° West 414 476 38,000  Level Memphis Center
Sun 02:24:32 PM 32.0456 -90.2031 249° West 414 476 38,000  Level Memphis Center
Sun 02:25:32 PM 32.0058 -90.3256 249° West 414 476 38,000  Level Memphis Center
Sun 02:27:59 PM 31.9108 -90.6097 249° West 413 475 38,000  Level Houston Center
Sun 02:29:01 PM 31.8614 -90.7578 249° West 407 468 38,000  Level Houston Center
Sun 02:30:03 PM 31.8197 -90.8811 248° West 411 473 38,000  Level Houston Center
Sun 02:31:06 PM 31.7778 -91.0056 248° West 406 467 38,000  Level Houston Center
Sun 02:32:08 PM 31.7353 -91.1300 248° West 412 474 38,000  Level Houston Center
Sun 02:33:10 PM 31.6908 -91.2500 247° West 404 465 38,000  Level Houston Center
Sun 02:34:12 PM 31.6422 -91.3936 248° West 395 455 38,000  Level Houston Center
Sun 02:35:14 PM 31.6008 -91.5139 248° West 396 456 38,000  Level Houston Center
Sun 02:36:16 PM 31.5606 -91.6350 249° West 398 458 38,000  Level Houston Center
Sun 02:37:18 PM 31.5178 -91.7558 247° West 400 460 38,000  Level Houston Center
Sun 02:38:20 PM 31.4742 -91.8783 247° West 406 467 38,000  Level Houston Center
Sun 02:39:22 PM 31.4325 -92.0011 248° West 405 466 38,000  Level Houston Center
Sun 02:40:24 PM 31.3881 -92.1281 248° West 398 458 38,000  Level Houston Center
Sun 02:41:27 PM 31.3450 -92.2478 247° West 399 459 38,000  Level Houston Center
Sun 02:42:29 PM 31.2950 -92.3903 248° West 397 457 38,000  Level Houston Center
Sun 02:43:31 PM 31.2508 -92.5111 247° West 403 464 38,000  Level Houston Center
Sun 02:44:33 PM 31.2075 -92.6297 247° West 400 460 38,000  Level Houston Center
Sun 02:45:35 PM 31.1647 -92.7486 247° West 399 459 38,000  Level Houston Center
Sun 02:46:37 PM 31.1217 -92.8658 247° West 395 455 38,000  Level Houston Center
Sun 02:47:39 PM 31.0689 -93.0042 246° West 391 450 38,000  Level Houston Center
Sun 02:48:41 PM 31.0258 -93.1200 247° West 391 450 38,000  Level Houston Center
Sun 02:49:44 PM 30.9828 -93.2369 247° West 393 452 38,000  Level Houston Center
Sun 02:50:46 PM 30.9389 -93.3533 246° West 395 455 38,000  Level Houston Center
Sun 02:51:48 PM 30.8961 -93.4700 247° West 395 455 38,000 -726 Level Houston Center
Sun 02:52:50 PM 30.8439 -93.6094 246° West 394 453 36,500 -1,935 Descending Houston Center
Sun 02:53:52 PM 30.7997 -93.7239 246° West 392 451 34,000 -1,839 Descending Houston Center
Sun 02:54:54 PM 30.7561 -93.8408 247° West 397 457 32,700 -2,032 Descending Houston Center
Sun 02:55:56 PM 30.7111 -93.9592 246° West 402 463 29,800 -2,661 Descending Houston Center
Sun 02:56:58 PM 30.6658 -94.0778 246° West 404 465 27,200 -2,220 Descending Houston Center
Sun 02:57:36 PM 30.6308 -94.1689 246° West 390 449 26,100 -1,935 Descending Houston Center
Sun 02:58:00 PM 30.6133 -94.2142 246° West 392 451 25,200 -2,093 Descending Houston Center
Sun 02:59:02 PM 30.5719 -94.3233 246° West 377 434 23,100 -2,000 Descending Houston Center
Sun 02:59:21 PM 30.5589 -94.3558 245° Southwest 369 425 22,500 -2,000 Descending Houston Center
Sun 03:00:05 PM 30.5303 -94.4283 245° Southwest 363 418 21,000 -1,981 Descending Houston Center
Sun 03:01:07 PM 30.4856 -94.5333 244° Southwest 354 407 19,000 -1,790 Descending Houston Center
Sun 03:02:09 PM 30.4300 -94.6169 232° Southwest 350 403 17,300 -2,104 Descending Houston Center
Sun 03:02:24 PM 30.4017 -94.6603 233° Southwest 352 405 16,300 -2,516 Descending Houston Center
Sun 03:03:11 PM 30.3608 -94.7256 234° Southwest 350 403 14,700 -2,032 Descending Houston Center
Sun 03:03:26 PM 30.3450 -94.7497 233° Southwest 348 400 14,200 -1,645 Descending Houston Center
Sun 03:04:13 PM 30.3053 -94.8142 234° Southwest 343 395 13,000 -787 Descending Houston Center
Sun 03:05:28 PM 30.2317 -94.9264 233° Southwest 328 377 12,600 -532 Descending Houston Center
Sun 03:06:17 PM 30.1950 -94.9817 233° Southwest 328 377 11,900 -1,026 Descending Houston Center
Sun 03:07:25 PM 30.1117 -95.0814 226° Southwest 347 399 10,600 -919 Descending Houston Center
Sun 03:08:21 PM 30.0336 -95.1147 200° South 334 384 10,000 -293 Descending Houston Center
Sun 03:09:28 PM 29.9361 -95.1561 200° South 330 380 10,000 -387 Level Houston Center
Sun 03:10:25 PM 29.8661 -95.1869 201° Southwest 316 364 9,200 -950 Descending Houston Center
Sun 03:11:28 PM 29.7908 -95.2194 201° Southwest 297 342 8,100 -912 Descending Houston Center
Sun 03:12:30 PM 29.7217 -95.1869 158° South 285 328 7,300 -1,065 Descending Houston Center
Sun 03:13:32 PM 29.6678 -95.1225 134° Southeast 274 315 5,900 -1,500 Descending Houston Center
Sun 03:14:34 PM 29.6056 -95.1086 169° South 253 291 4,200 -1,226 Descending Houston Center
Sun 03:16:00 PM 29.6301 -95.2506 283° West  Level FlightAware Approximate
Sun 03:16:38 PM 29.5708 -95.1917 283° West 185 213 2,100  Level Houston Center
Sun 03:17:40 PM 29.5994 -95.2250 315° West 158 182 1,100 -878 Descending Houston Center
Sun 03:18:41 PM 29.6306 -95.2608 315° West 140 161 300 -787 Descending Houston Center

Login

Don't have an account? Register now (free) for customized features, flight alerts, and more!